sensor_id;sensor_type;location;lat;lon;timestamp;P1;durP1;ratioP1;P2;durP2;ratioP2
9496;SDS011;4786;51.270;4.456;2022-07-23T00:02:12;6.67;;;4.30;;
9496;SDS011;4786;51.270;4.456;2022-07-23T00:04:38;6.30;;;4.67;;
9496;SDS011;4786;51.270;4.456;2022-07-23T00:07:04;9.33;;;4.83;;
9496;SDS011;4786;51.270;4.456;2022-07-23T00:09:30;7.10;;;4.67;;
9496;SDS011;4786;51.270;4.456;2022-07-23T00:11:57;8.90;;;5.07;;
9496;SDS011;4786;51.270;4.456;2022-07-23T00:14:23;6.10;;;4.57;;
9496;SDS011;4786;51.270;4.456;2022-07-23T00:16:49;5.10;;;4.30;;
9496;SDS011;4786;51.270;4.456;2022-07-23T00:19:16;5.50;;;4.30;;
9496;SDS011;4786;51.270;4.456;2022-07-23T00:21:41;5.37;;;4.50;;
9496;SDS011;4786;51.270;4.456;2022-07-23T00:24:07;6.70;;;4.47;;
9496;SDS011;4786;51.270;4.456;2022-07-23T00:26:33;4.83;;;4.40;;
9496;SDS011;4786;51.270;4.456;2022-07-23T00:28:59;5.70;;;4.40;;
9496;SDS011;4786;51.270;4.456;2022-07-23T00:31:25;4.97;;;4.30;;
9496;SDS011;4786;51.270;4.456;2022-07-23T00:33:52;4.93;;;4.20;;
9496;SDS011;4786;51.270;4.456;2022-07-23T00:36:21;4.40;;;4.00;;
9496;SDS011;4786;51.270;4.456;2022-07-23T00:38:48;5.33;;;4.30;;
9496;SDS011;4786;51.270;4.456;2022-07-23T00:41:14;9.57;;;4.77;;
9496;SDS011;4786;51.270;4.456;2022-07-23T00:43:40;8.57;;;4.50;;
9496;SDS011;4786;51.270;4.456;2022-07-23T00:46:06;7.07;;;4.57;;
9496;SDS011;4786;51.270;4.456;2022-07-23T00:48:32;6.80;;;3.83;;
9496;SDS011;4786;51.270;4.456;2022-07-23T00:50:58;7.37;;;4.43;;
9496;SDS011;4786;51.270;4.456;2022-07-23T00:53:24;5.57;;;3.93;;
9496;SDS011;4786;51.270;4.456;2022-07-23T00:55:50;6.97;;;4.20;;
9496;SDS011;4786;51.270;4.456;2022-07-23T00:58:17;5.87;;;4.30;;
9496;SDS011;4786;51.270;4.456;2022-07-23T01:00:44;10.03;;;5.07;;
9496;SDS011;4786;51.270;4.456;2022-07-23T01:03:10;6.93;;;4.30;;
9496;SDS011;4786;51.270;4.456;2022-07-23T01:05:36;8.33;;;4.90;;
9496;SDS011;4786;51.270;4.456;2022-07-23T01:08:02;10.07;;;4.90;;
9496;SDS011;4786;51.270;4.456;2022-07-23T01:10:28;5.17;;;4.43;;
9496;SDS011;4786;51.270;4.456;2022-07-23T01:13:07;4.47;;;4.03;;
9496;SDS011;4786;51.270;4.456;2022-07-23T01:15:35;4.97;;;3.77;;
9496;SDS011;4786;51.270;4.456;2022-07-23T01:18:02;5.00;;;4.47;;
9496;SDS011;4786;51.270;4.456;2022-07-23T01:20:30;6.47;;;4.50;;
9496;SDS011;4786;51.270;4.456;2022-07-23T01:22:57;5.10;;;4.20;;
9496;SDS011;4786;51.270;4.456;2022-07-23T01:25:23;7.50;;;4.63;;
9496;SDS011;4786;51.270;4.456;2022-07-23T01:27:51;6.40;;;4.53;;
9496;SDS011;4786;51.270;4.456;2022-07-23T01:30:18;4.90;;;4.00;;
9496;SDS011;4786;51.270;4.456;2022-07-23T01:32:45;4.93;;;4.40;;
9496;SDS011;4786;51.270;4.456;2022-07-23T01:35:11;4.97;;;3.67;;
9496;SDS011;4786;51.270;4.456;2022-07-23T01:37:38;3.90;;;3.50;;
9496;SDS011;4786;51.270;4.456;2022-07-23T01:40:04;7.73;;;4.90;;
9496;SDS011;4786;51.270;4.456;2022-07-23T01:42:31;4.63;;;4.17;;
9496;SDS011;4786;51.270;4.456;2022-07-23T01:44:57;4.57;;;4.10;;
9496;SDS011;4786;51.270;4.456;2022-07-23T01:47:23;4.67;;;4.20;;
9496;SDS011;4786;51.270;4.456;2022-07-23T01:49:49;6.03;;;4.13;;
9496;SDS011;4786;51.270;4.456;2022-07-23T01:52:15;8.43;;;3.60;;
9496;SDS011;4786;51.270;4.456;2022-07-23T01:54:41;3.80;;;3.40;;
9496;SDS011;4786;51.270;4.456;2022-07-23T01:57:07;5.87;;;4.20;;
9496;SDS011;4786;51.270;4.456;2022-07-23T01:59:34;4.67;;;3.90;;
9496;SDS011;4786;51.270;4.456;2022-07-23T02:02:01;5.47;;;3.77;;
9496;SDS011;4786;51.270;4.456;2022-07-23T02:04:28;5.57;;;4.13;;
9496;SDS011;4786;51.270;4.456;2022-07-23T02:06:54;5.00;;;4.50;;
9496;SDS011;4786;51.270;4.456;2022-07-23T02:09:20;8.67;;;4.87;;
9496;SDS011;4786;51.270;4.456;2022-07-23T02:11:47;4.13;;;3.57;;
9496;SDS011;4786;51.270;4.456;2022-07-23T02:14:12;4.77;;;3.80;;
9496;SDS011;4786;51.270;4.456;2022-07-23T02:16:39;7.03;;;3.97;;
9496;SDS011;4786;51.270;4.456;2022-07-23T02:19:05;6.30;;;3.33;;
9496;SDS011;4786;51.270;4.456;2022-07-23T02:21:31;6.23;;;3.47;;
9496;SDS011;4786;51.270;4.456;2022-07-23T02:23:56;3.83;;;3.20;;
9496;SDS011;4786;51.270;4.456;2022-07-23T02:26:22;3.40;;;3.03;;
9496;SDS011;4786;51.270;4.456;2022-07-23T02:28:48;5.30;;;2.47;;
9496;SDS011;4786;51.270;4.456;2022-07-23T02:31:14;2.90;;;2.63;;
9496;SDS011;4786;51.270;4.456;2022-07-23T02:33:40;5.10;;;3.40;;
9496;SDS011;4786;51.270;4.456;2022-07-23T02:36:06;4.87;;;3.17;;
9496;SDS011;4786;51.270;4.456;2022-07-23T02:38:32;4.20;;;3.80;;
9496;SDS011;4786;51.270;4.456;2022-07-23T02:40:59;5.23;;;4.30;;
9496;SDS011;4786;51.270;4.456;2022-07-23T02:43:24;6.13;;;4.10;;
9496;SDS011;4786;51.270;4.456;2022-07-23T02:45:50;4.63;;;4.20;;
9496;SDS011;4786;51.270;4.456;2022-07-23T02:48:16;4.37;;;3.97;;
9496;SDS011;4786;51.270;4.456;2022-07-23T02:50:42;4.73;;;4.20;;
9496;SDS011;4786;51.270;4.456;2022-07-23T02:53:09;7.10;;;4.70;;
9496;SDS011;4786;51.270;4.456;2022-07-23T02:55:34;5.50;;;5.00;;
9496;SDS011;4786;51.270;4.456;2022-07-23T02:58:00;4.33;;;4.03;;
9496;SDS011;4786;51.270;4.456;2022-07-23T03:00:26;5.03;;;4.53;;
9496;SDS011;4786;51.270;4.456;2022-07-23T03:02:52;4.20;;;3.90;;
9496;SDS011;4786;51.270;4.456;2022-07-23T03:05:18;4.67;;;4.27;;
9496;SDS011;4786;51.270;4.456;2022-07-23T03:07:44;4.10;;;3.70;;
9496;SDS011;4786;51.270;4.456;2022-07-23T03:10:10;4.57;;;4.17;;
9496;SDS011;4786;51.270;4.456;2022-07-23T03:12:36;11.47;;;4.97;;
9496;SDS011;4786;51.270;4.456;2022-07-23T03:15:02;7.47;;;3.60;;
9496;SDS011;4786;51.270;4.456;2022-07-23T03:17:28;4.50;;;3.37;;
9496;SDS011;4786;51.270;4.456;2022-07-23T03:19:54;4.53;;;3.40;;
9496;SDS011;4786;51.270;4.456;2022-07-23T03:22:20;9.73;;;4.23;;
9496;SDS011;4786;51.270;4.456;2022-07-23T03:24:46;6.97;;;4.30;;
9496;SDS011;4786;51.270;4.456;2022-07-23T03:27:21;5.00;;;3.53;;
9496;SDS011;4786;51.270;4.456;2022-07-23T03:29:49;4.43;;;3.80;;
9496;SDS011;4786;51.270;4.456;2022-07-23T03:32:16;5.73;;;3.20;;
9496;SDS011;4786;51.270;4.456;2022-07-23T03:34:43;6.07;;;4.03;;
9496;SDS011;4786;51.270;4.456;2022-07-23T03:37:09;4.37;;;3.97;;
9496;SDS011;4786;51.270;4.456;2022-07-23T03:39:34;5.03;;;3.87;;
9496;SDS011;4786;51.270;4.456;2022-07-23T03:42:01;4.50;;;4.10;;
9496;SDS011;4786;51.270;4.456;2022-07-23T03:44:26;5.03;;;4.47;;
9496;SDS011;4786;51.270;4.456;2022-07-23T03:46:52;4.93;;;4.43;;
9496;SDS011;4786;51.270;4.456;2022-07-23T03:49:18;7.23;;;4.90;;
9496;SDS011;4786;51.270;4.456;2022-07-23T03:51:45;5.90;;;4.90;;
9496;SDS011;4786;51.270;4.456;2022-07-23T03:54:11;10.87;;;5.50;;
9496;SDS011;4786;51.270;4.456;2022-07-23T03:56:36;5.20;;;4.70;;
9496;SDS011;4786;51.270;4.456;2022-07-23T03:59:03;4.87;;;4.30;;
9496;SDS011;4786;51.270;4.456;2022-07-23T04:01:28;5.50;;;4.00;;
9496;SDS011;4786;51.270;4.456;2022-07-23T04:03:54;3.70;;;3.40;;
9496;SDS011;4786;51.270;4.456;2022-07-23T04:06:20;5.50;;;4.30;;
9496;SDS011;4786;51.270;4.456;2022-07-23T04:08:47;5.33;;;4.30;;
9496;SDS011;4786;51.270;4.456;2022-07-23T04:11:12;4.97;;;4.57;;
9496;SDS011;4786;51.270;4.456;2022-07-23T04:13:39;4.90;;;4.50;;
9496;SDS011;4786;51.270;4.456;2022-07-23T04:16:05;5.00;;;4.60;;
9496;SDS011;4786;51.270;4.456;2022-07-23T04:18:31;5.63;;;3.40;;
9496;SDS011;4786;51.270;4.456;2022-07-23T04:20:57;2.90;;;2.70;;
9496;SDS011;4786;51.270;4.456;2022-07-23T04:23:24;4.33;;;3.00;;
9496;SDS011;4786;51.270;4.456;2022-07-23T04:25:50;3.53;;;2.83;;
9496;SDS011;4786;51.270;4.456;2022-07-23T04:28:15;3.00;;;2.70;;
9496;SDS011;4786;51.270;4.456;2022-07-23T04:30:41;3.90;;;3.50;;
9496;SDS011;4786;51.270;4.456;2022-07-23T04:33:07;6.00;;;2.80;;
9496;SDS011;4786;51.270;4.456;2022-07-23T04:35:33;3.53;;;3.10;;
9496;SDS011;4786;51.270;4.456;2022-07-23T04:38:00;4.00;;;3.67;;
9496;SDS011;4786;51.270;4.456;2022-07-23T04:40:26;4.93;;;4.47;;
9496;SDS011;4786;51.270;4.456;2022-07-23T04:42:52;4.87;;;3.73;;
9496;SDS011;4786;51.270;4.456;2022-07-23T04:45:18;5.17;;;4.67;;
9496;SDS011;4786;51.270;4.456;2022-07-23T04:47:44;4.57;;;3.97;;
9496;SDS011;4786;51.270;4.456;2022-07-23T04:50:10;5.27;;;4.33;;
9496;SDS011;4786;51.270;4.456;2022-07-23T04:52:37;3.90;;;3.60;;
9496;SDS011;4786;51.270;4.456;2022-07-23T04:55:03;4.33;;;3.47;;
9496;SDS011;4786;51.270;4.456;2022-07-23T04:57:29;7.63;;;4.90;;
9496;SDS011;4786;51.270;4.456;2022-07-23T04:59:55;6.30;;;4.70;;
9496;SDS011;4786;51.270;4.456;2022-07-23T05:02:21;4.83;;;4.30;;
9496;SDS011;4786;51.270;4.456;2022-07-23T05:04:47;7.37;;;4.70;;
9496;SDS011;4786;51.270;4.456;2022-07-23T05:07:12;6.40;;;3.87;;
9496;SDS011;4786;51.270;4.456;2022-07-23T05:09:38;6.00;;;4.40;;
9496;SDS011;4786;51.270;4.456;2022-07-23T05:12:04;4.40;;;4.00;;
9496;SDS011;4786;51.270;4.456;2022-07-23T05:14:30;4.50;;;4.10;;
9496;SDS011;4786;51.270;4.456;2022-07-23T05:16:56;4.00;;;3.70;;
9496;SDS011;4786;51.270;4.456;2022-07-23T05:19:22;4.70;;;4.10;;
9496;SDS011;4786;51.270;4.456;2022-07-23T05:21:48;4.10;;;3.80;;
9496;SDS011;4786;51.270;4.456;2022-07-23T05:24:14;4.73;;;4.33;;
9496;SDS011;4786;51.270;4.456;2022-07-23T05:26:39;5.93;;;5.33;;
9496;SDS011;4786;51.270;4.456;2022-07-23T05:29:06;7.10;;;6.40;;
9496;SDS011;4786;51.270;4.456;2022-07-23T05:31:32;5.80;;;5.30;;
9496;SDS011;4786;51.270;4.456;2022-07-23T05:33:58;6.43;;;5.82;;
9496;SDS011;4786;51.270;4.456;2022-07-23T05:36:24;4.85;;;4.10;;
9496;SDS011;4786;51.270;4.456;2022-07-23T05:38:49;5.03;;;4.40;;
9496;SDS011;4786;51.270;4.456;2022-07-23T05:41:15;5.72;;;5.22;;
9496;SDS011;4786;51.270;4.456;2022-07-23T05:43:41;5.32;;;4.82;;
9496;SDS011;4786;51.270;4.456;2022-07-23T05:46:08;6.05;;;4.65;;
9496;SDS011;4786;51.270;4.456;2022-07-23T05:48:33;5.80;;;5.00;;
9496;SDS011;4786;51.270;4.456;2022-07-23T05:51:00;5.65;;;5.15;;
9496;SDS011;4786;51.270;4.456;2022-07-23T05:53:26;5.32;;;4.82;;
9496;SDS011;4786;51.270;4.456;2022-07-23T05:55:51;4.63;;;4.28;;
9496;SDS011;4786;51.270;4.456;2022-07-23T05:58:17;5.28;;;4.65;;
9496;SDS011;4786;51.270;4.456;2022-07-23T06:00:43;4.88;;;4.47;;
9496;SDS011;4786;51.270;4.456;2022-07-23T06:03:09;5.75;;;4.25;;
9496;SDS011;4786;51.270;4.456;2022-07-23T06:05:34;4.43;;;4.00;;
9496;SDS011;4786;51.270;4.456;2022-07-23T06:08:00;4.35;;;3.90;;
9496;SDS011;4786;51.270;4.456;2022-07-23T06:10:26;4.72;;;4.22;;
9496;SDS011;4786;51.270;4.456;2022-07-23T06:12:52;4.80;;;4.15;;
9496;SDS011;4786;51.270;4.456;2022-07-23T06:15:18;5.88;;;3.65;;
9496;SDS011;4786;51.270;4.456;2022-07-23T06:17:44;3.88;;;3.58;;
9496;SDS011;4786;51.270;4.456;2022-07-23T06:20:10;5.13;;;3.85;;
9496;SDS011;4786;51.270;4.456;2022-07-23T06:22:36;6.45;;;4.10;;
9496;SDS011;4786;51.270;4.456;2022-07-23T06:25:03;4.55;;;4.15;;
9496;SDS011;4786;51.270;4.456;2022-07-23T06:27:29;4.13;;;3.70;;
9496;SDS011;4786;51.270;4.456;2022-07-23T06:29:55;4.85;;;4.25;;
9496;SDS011;4786;51.270;4.456;2022-07-23T06:32:21;5.05;;;3.80;;
9496;SDS011;4786;51.270;4.456;2022-07-23T06:34:47;4.45;;;3.90;;
9496;SDS011;4786;51.270;4.456;2022-07-23T06:37:13;3.95;;;3.63;;
9496;SDS011;4786;51.270;4.456;2022-07-23T06:39:38;4.65;;;3.30;;
9496;SDS011;4786;51.270;4.456;2022-07-23T06:42:04;3.58;;;3.28;;
9496;SDS011;4786;51.270;4.456;2022-07-23T06:44:31;5.18;;;3.22;;
9496;SDS011;4786;51.270;4.456;2022-07-23T06:46:56;3.38;;;3.05;;
9496;SDS011;4786;51.270;4.456;2022-07-23T06:49:23;4.32;;;3.00;;
9496;SDS011;4786;51.270;4.456;2022-07-23T06:51:49;3.58;;;3.28;;
9496;SDS011;4786;51.270;4.456;2022-07-23T06:54:15;5.32;;;3.25;;
9496;SDS011;4786;51.270;4.456;2022-07-23T06:56:40;3.72;;;3.42;;
9496;SDS011;4786;51.270;4.456;2022-07-23T06:59:07;3.47;;;3.17;;
9496;SDS011;4786;51.270;4.456;2022-07-23T07:01:33;2.92;;;2.63;;
9496;SDS011;4786;51.270;4.456;2022-07-23T07:03:59;5.13;;;3.17;;
9496;SDS011;4786;51.270;4.456;2022-07-23T07:06:25;3.38;;;2.70;;
9496;SDS011;4786;51.270;4.456;2022-07-23T07:08:51;4.00;;;3.00;;
9496;SDS011;4786;51.270;4.456;2022-07-23T07:11:17;4.18;;;2.90;;
9496;SDS011;4786;51.270;4.456;2022-07-23T07:13:43;4.82;;;3.10;;
9496;SDS011;4786;51.270;4.456;2022-07-23T07:16:08;6.03;;;3.20;;
9496;SDS011;4786;51.270;4.456;2022-07-23T07:18:34;3.80;;;3.00;;
9496;SDS011;4786;51.270;4.456;2022-07-23T07:21:00;5.22;;;3.50;;
9496;SDS011;4786;51.270;4.456;2022-07-23T07:23:27;3.72;;;3.42;;
9496;SDS011;4786;51.270;4.456;2022-07-23T07:25:53;4.55;;;3.95;;
9496;SDS011;4786;51.270;4.456;2022-07-23T07:28:19;4.88;;;3.95;;
9496;SDS011;4786;51.270;4.456;2022-07-23T07:30:45;5.53;;;3.13;;
9496;SDS011;4786;51.270;4.456;2022-07-23T07:33:11;5.72;;;3.28;;
9496;SDS011;4786;51.270;4.456;2022-07-23T07:35:36;3.90;;;3.60;;
9496;SDS011;4786;51.270;4.456;2022-07-23T07:38:03;4.65;;;3.13;;
9496;SDS011;4786;51.270;4.456;2022-07-23T07:40:29;3.38;;;2.67;;
9496;SDS011;4786;51.270;4.456;2022-07-23T07:42:54;4.40;;;3.08;;
9496;SDS011;4786;51.270;4.456;2022-07-23T07:45:21;4.53;;;2.90;;
9496;SDS011;4786;51.270;4.456;2022-07-23T07:47:48;3.85;;;2.75;;
9496;SDS011;4786;51.270;4.456;2022-07-23T07:50:15;4.57;;;2.83;;
9496;SDS011;4786;51.270;4.456;2022-07-23T07:52:41;6.45;;;2.92;;
9496;SDS011;4786;51.270;4.456;2022-07-23T07:55:08;3.55;;;3.03;;
9496;SDS011;4786;51.270;4.456;2022-07-23T07:57:35;3.30;;;3.00;;
9496;SDS011;4786;51.270;4.456;2022-07-23T08:00:01;2.80;;;2.55;;
9496;SDS011;4786;51.270;4.456;2022-07-23T08:02:28;3.80;;;3.05;;
9496;SDS011;4786;51.270;4.456;2022-07-23T08:04:54;3.20;;;2.80;;
9496;SDS011;4786;51.270;4.456;2022-07-23T08:07:22;6.78;;;3.47;;
9496;SDS011;4786;51.270;4.456;2022-07-23T08:09:48;3.95;;;3.45;;
9496;SDS011;4786;51.270;4.456;2022-07-23T08:12:14;4.30;;;3.72;;
9496;SDS011;4786;51.270;4.456;2022-07-23T08:14:40;4.57;;;3.53;;
9496;SDS011;4786;51.270;4.456;2022-07-23T08:17:06;4.53;;;3.83;;
9496;SDS011;4786;51.270;4.456;2022-07-23T08:19:31;3.47;;;3.17;;
9496;SDS011;4786;51.270;4.456;2022-07-23T08:21:57;4.80;;;3.00;;
9496;SDS011;4786;51.270;4.456;2022-07-23T08:24:23;4.95;;;3.63;;
9496;SDS011;4786;51.270;4.456;2022-07-23T08:26:49;7.57;;;3.72;;
9496;SDS011;4786;51.270;4.456;2022-07-23T08:29:15;6.05;;;3.80;;
9496;SDS011;4786;51.270;4.456;2022-07-23T08:31:41;5.65;;;3.80;;
9496;SDS011;4786;51.270;4.456;2022-07-23T08:34:07;3.53;;;3.15;;
9496;SDS011;4786;51.270;4.456;2022-07-23T08:36:33;5.30;;;3.38;;
9496;SDS011;4786;51.270;4.456;2022-07-23T08:38:59;5.18;;;3.35;;
9496;SDS011;4786;51.270;4.456;2022-07-23T08:41:28;4.43;;;3.08;;
9496;SDS011;4786;51.270;4.456;2022-07-23T08:43:54;4.00;;;3.08;;
9496;SDS011;4786;51.270;4.456;2022-07-23T08:46:20;4.82;;;3.42;;
9496;SDS011;4786;51.270;4.456;2022-07-23T08:48:47;3.88;;;3.30;;
9496;SDS011;4786;51.270;4.456;2022-07-23T08:51:14;3.45;;;2.72;;
9496;SDS011;4786;51.270;4.456;2022-07-23T08:53:40;2.90;;;2.60;;
9496;SDS011;4786;51.270;4.456;2022-07-23T08:56:07;3.05;;;2.80;;
9496;SDS011;4786;51.270;4.456;2022-07-23T08:58:33;6.00;;;3.60;;
9496;SDS011;4786;51.270;4.456;2022-07-23T09:01:00;5.97;;;3.03;;
9496;SDS011;4786;51.270;4.456;2022-07-23T09:03:33;3.28;;;2.97;;
9496;SDS011;4786;51.270;4.456;2022-07-23T09:06:00;3.90;;;3.08;;
9496;SDS011;4786;51.270;4.456;2022-07-23T09:11:07;3.97;;;3.00;;
9496;SDS011;4786;51.270;4.456;2022-07-23T09:13:38;3.20;;;2.83;;
9496;SDS011;4786;51.270;4.456;2022-07-23T09:16:06;4.80;;;3.20;;
9496;SDS011;4786;51.270;4.456;2022-07-23T09:18:40;4.78;;;3.08;;
9496;SDS011;4786;51.270;4.456;2022-07-23T09:21:12;4.13;;;2.80;;
9496;SDS011;4786;51.270;4.456;2022-07-23T09:31:25;3.05;;;2.22;;
9496;SDS011;4786;51.270;4.456;2022-07-23T09:34:06;3.45;;;2.30;;
9496;SDS011;4786;51.270;4.456;2022-07-23T09:36:33;3.42;;;2.75;;
9496;SDS011;4786;51.270;4.456;2022-07-23T09:38:59;4.55;;;2.63;;
9496;SDS011;4786;51.270;4.456;2022-07-23T09:41:26;4.80;;;2.58;;
9496;SDS011;4786;51.270;4.456;2022-07-23T09:44:06;2.38;;;2.17;;
9496;SDS011;4786;51.270;4.456;2022-07-23T09:46:37;3.35;;;2.10;;
9496;SDS011;4786;51.270;4.456;2022-07-23T09:51:58;7.07;;;2.63;;
9496;SDS011;4786;51.270;4.456;2022-07-23T09:54:27;3.22;;;2.17;;
9496;SDS011;4786;51.270;4.456;2022-07-23T09:56:55;3.75;;;2.53;;
9496;SDS011;4786;51.270;4.456;2022-07-23T09:59:24;4.18;;;2.90;;
9496;SDS011;4786;51.270;4.456;2022-07-23T10:01:52;4.18;;;2.70;;
9496;SDS011;4786;51.270;4.456;2022-07-23T10:04:21;2.65;;;2.20;;
9496;SDS011;4786;51.270;4.456;2022-07-23T10:06:53;2.30;;;2.10;;
9496;SDS011;4786;51.270;4.456;2022-07-23T10:09:24;3.60;;;2.03;;
9496;SDS011;4786;51.270;4.456;2022-07-23T10:11:55;3.53;;;2.20;;
9496;SDS011;4786;51.270;4.456;2022-07-23T10:14:30;2.50;;;2.08;;
9496;SDS011;4786;51.270;4.456;2022-07-23T10:16:58;2.75;;;1.92;;
9496;SDS011;4786;51.270;4.456;2022-07-23T10:19:25;3.20;;;2.10;;
9496;SDS011;4786;51.270;4.456;2022-07-23T10:21:58;3.47;;;1.90;;
9496;SDS011;4786;51.270;4.456;2022-07-23T10:30:05;3.22;;;2.05;;
9496;SDS011;4786;51.270;4.456;2022-07-23T10:33:23;4.13;;;1.85;;
9496;SDS011;4786;51.270;4.456;2022-07-23T10:38:49;2.95;;;1.92;;
9496;SDS011;4786;51.270;4.456;2022-07-23T10:44:17;3.45;;;2.20;;
9496;SDS011;4786;51.270;4.456;2022-07-23T10:47:01;3.92;;;2.10;;
9496;SDS011;4786;51.270;4.456;2022-07-23T10:49:34;2.78;;;1.83;;
9496;SDS011;4786;51.270;4.456;2022-07-23T10:54:45;1.80;;;1.70;;
9496;SDS011;4786;51.270;4.456;2022-07-23T10:57:21;3.70;;;2.35;;
9496;SDS011;4786;51.270;4.456;2022-07-23T11:02:48;4.05;;;2.50;;
9496;SDS011;4786;51.270;4.456;2022-07-23T11:05:21;4.57;;;2.45;;
9496;SDS011;4786;51.270;4.456;2022-07-23T11:10:41;3.17;;;2.03;;
9496;SDS011;4786;51.270;4.456;2022-07-23T11:24:03;4.45;;;2.83;;
9496;SDS011;4786;51.270;4.456;2022-07-23T11:32:34;2.22;;;2.10;;
9496;SDS011;4786;51.270;4.456;2022-07-23T11:34:45;2.63;;;2.03;;
9496;SDS011;4786;51.270;4.456;2022-07-23T11:37:12;3.38;;;2.10;;
9496;SDS011;4786;51.270;4.456;2022-07-23T11:39:57;3.20;;;1.90;;
9496;SDS011;4786;51.270;4.456;2022-07-23T11:42:24;2.20;;;2.00;;
9496;SDS011;4786;51.270;4.456;2022-07-23T11:44:50;2.33;;;2.13;;
9496;SDS011;4786;51.270;4.456;2022-07-23T11:47:21;2.00;;;1.75;;
9496;SDS011;4786;51.270;4.456;2022-07-23T11:49:52;2.47;;;2.03;;
9496;SDS011;4786;51.270;4.456;2022-07-23T11:52:23;3.10;;;2.33;;
9496;SDS011;4786;51.270;4.456;2022-07-23T11:55:00;2.38;;;1.80;;
9496;SDS011;4786;51.270;4.456;2022-07-23T11:57:32;3.05;;;1.95;;
9496;SDS011;4786;51.270;4.456;2022-07-23T12:00:04;3.47;;;1.90;;
9496;SDS011;4786;51.270;4.456;2022-07-23T12:02:39;2.15;;;1.95;;
9496;SDS011;4786;51.270;4.456;2022-07-23T12:05:17;2.15;;;1.98;;
9496;SDS011;4786;51.270;4.456;2022-07-23T12:07:45;2.78;;;2.20;;
9496;SDS011;4786;51.270;4.456;2022-07-23T12:15:14;2.53;;;2.22;;
9496;SDS011;4786;51.270;4.456;2022-07-23T12:17:43;2.67;;;2.08;;
9496;SDS011;4786;51.270;4.456;2022-07-23T12:20:12;2.50;;;2.30;;
9496;SDS011;4786;51.270;4.456;2022-07-23T12:25:09;2.40;;;2.20;;
9496;SDS011;4786;51.270;4.456;2022-07-23T12:27:40;2.40;;;2.20;;
9496;SDS011;4786;51.270;4.456;2022-07-23T12:30:19;2.70;;;2.50;;
9496;SDS011;4786;51.270;4.456;2022-07-23T12:32:46;2.90;;;2.70;;
9496;SDS011;4786;51.270;4.456;2022-07-23T12:35:13;3.55;;;2.28;;
9496;SDS011;4786;51.270;4.456;2022-07-23T12:37:41;2.03;;;1.83;;
9496;SDS011;4786;51.270;4.456;2022-07-23T12:45:46;2.35;;;2.15;;
9496;SDS011;4786;51.270;4.456;2022-07-23T12:48:29;3.15;;;2.20;;
9496;SDS011;4786;51.270;4.456;2022-07-23T12:53:36;2.25;;;2.00;;
9496;SDS011;4786;51.270;4.456;2022-07-23T12:58:40;2.28;;;2.08;;
9496;SDS011;4786;51.270;4.456;2022-07-23T13:03:54;3.22;;;1.92;;
9496;SDS011;4786;51.270;4.456;2022-07-23T13:06:23;2.15;;;1.95;;
9496;SDS011;4786;51.270;4.456;2022-07-23T13:08:49;2.20;;;2.00;;
9496;SDS011;4786;51.270;4.456;2022-07-23T13:11:15;3.78;;;2.28;;
9496;SDS011;4786;51.270;4.456;2022-07-23T13:13:41;4.43;;;2.50;;
9496;SDS011;4786;51.270;4.456;2022-07-23T13:16:07;2.47;;;2.22;;
9496;SDS011;4786;51.270;4.456;2022-07-23T13:18:33;2.42;;;2.22;;
9496;SDS011;4786;51.270;4.456;2022-07-23T13:20:59;2.35;;;2.15;;
9496;SDS011;4786;51.270;4.456;2022-07-23T13:23:26;4.03;;;2.05;;
9496;SDS011;4786;51.270;4.456;2022-07-23T13:25:52;2.60;;;2.28;;
9496;SDS011;4786;51.270;4.456;2022-07-23T13:28:19;2.25;;;2.03;;
9496;SDS011;4786;51.270;4.456;2022-07-23T13:30:47;12.38;;;2.30;;
9496;SDS011;4786;51.270;4.456;2022-07-23T13:33:14;3.13;;;2.25;;
9496;SDS011;4786;51.270;4.456;2022-07-23T13:35:41;2.38;;;2.17;;
9496;SDS011;4786;51.270;4.456;2022-07-23T13:38:07;2.90;;;2.03;;
9496;SDS011;4786;51.270;4.456;2022-07-23T13:40:37;2.28;;;2.08;;
9496;SDS011;4786;51.270;4.456;2022-07-23T13:43:06;2.10;;;2.00;;
9496;SDS011;4786;51.270;4.456;2022-07-23T13:45:33;3.60;;;2.10;;
9496;SDS011;4786;51.270;4.456;2022-07-23T13:47:59;2.63;;;2.28;;
9496;SDS011;4786;51.270;4.456;2022-07-23T13:50:26;2.90;;;2.60;;
9496;SDS011;4786;51.270;4.456;2022-07-23T13:52:52;2.42;;;2.03;;
9496;SDS011;4786;51.270;4.456;2022-07-23T13:55:17;2.47;;;2.28;;
9496;SDS011;4786;51.270;4.456;2022-07-23T13:57:44;3.10;;;2.20;;
9496;SDS011;4786;51.270;4.456;2022-07-23T14:00:10;2.35;;;1.95;;
9496;SDS011;4786;51.270;4.456;2022-07-23T14:02:37;2.58;;;2.38;;
9496;SDS011;4786;51.270;4.456;2022-07-23T14:05:05;3.03;;;2.28;;
9496;SDS011;4786;51.270;4.456;2022-07-23T14:07:33;2.45;;;2.25;;
9496;SDS011;4786;51.270;4.456;2022-07-23T14:09:59;2.50;;;2.30;;
9496;SDS011;4786;51.270;4.456;2022-07-23T14:12:26;3.63;;;2.50;;
9496;SDS011;4786;51.270;4.456;2022-07-23T14:14:52;6.32;;;2.95;;
9496;SDS011;4786;51.270;4.456;2022-07-23T14:17:18;2.70;;;2.28;;
9496;SDS011;4786;51.270;4.456;2022-07-23T14:19:44;2.70;;;2.45;;
9496;SDS011;4786;51.270;4.456;2022-07-23T14:22:10;4.68;;;2.63;;
9496;SDS011;4786;51.270;4.456;2022-07-23T14:24:36;3.13;;;2.35;;
9496;SDS011;4786;51.270;4.456;2022-07-23T14:27:02;2.63;;;2.40;;
9496;SDS011;4786;51.270;4.456;2022-07-23T14:29:29;3.58;;;2.50;;
9496;SDS011;4786;51.270;4.456;2022-07-23T14:31:56;2.80;;;2.60;;
9496;SDS011;4786;51.270;4.456;2022-07-23T14:34:22;2.53;;;2.33;;
9496;SDS011;4786;51.270;4.456;2022-07-23T14:36:48;3.67;;;2.63;;
9496;SDS011;4786;51.270;4.456;2022-07-23T14:39:14;4.72;;;2.63;;
9496;SDS011;4786;51.270;4.456;2022-07-23T14:41:40;2.55;;;2.35;;
9496;SDS011;4786;51.270;4.456;2022-07-23T14:44:06;2.58;;;2.38;;
9496;SDS011;4786;51.270;4.456;2022-07-23T14:46:33;2.47;;;2.28;;
9496;SDS011;4786;51.270;4.456;2022-07-23T14:48:59;2.50;;;2.30;;
9496;SDS011;4786;51.270;4.456;2022-07-23T14:51:25;2.97;;;2.28;;
9496;SDS011;4786;51.270;4.456;2022-07-23T14:53:52;3.08;;;2.30;;
9496;SDS011;4786;51.270;4.456;2022-07-23T14:56:18;2.72;;;2.53;;
9496;SDS011;4786;51.270;4.456;2022-07-23T14:58:44;2.30;;;2.10;;
9496;SDS011;4786;51.270;4.456;2022-07-23T15:01:10;3.05;;;2.50;;
9496;SDS011;4786;51.270;4.456;2022-07-23T15:03:36;2.67;;;2.47;;
9496;SDS011;4786;51.270;4.456;2022-07-23T15:06:01;2.40;;;2.20;;
9496;SDS011;4786;51.270;4.456;2022-07-23T15:08:27;2.50;;;2.30;;
9496;SDS011;4786;51.270;4.456;2022-07-23T15:10:53;3.22;;;2.45;;
9496;SDS011;4786;51.270;4.456;2022-07-23T15:13:19;2.40;;;2.20;;
9496;SDS011;4786;51.270;4.456;2022-07-23T15:15:45;2.38;;;2.17;;
9496;SDS011;4786;51.270;4.456;2022-07-23T15:18:11;2.65;;;2.45;;
9496;SDS011;4786;51.270;4.456;2022-07-23T15:20:37;3.33;;;2.40;;
9496;SDS011;4786;51.270;4.456;2022-07-23T15:23:04;3.97;;;2.40;;
9496;SDS011;4786;51.270;4.456;2022-07-23T15:25:31;3.17;;;2.90;;
9496;SDS011;4786;51.270;4.456;2022-07-23T15:27:57;2.58;;;2.22;;
9496;SDS011;4786;51.270;4.456;2022-07-23T15:30:24;2.63;;;2.42;;
9496;SDS011;4786;51.270;4.456;2022-07-23T15:32:51;3.03;;;2.40;;
9496;SDS011;4786;51.270;4.456;2022-07-23T15:35:18;2.50;;;2.28;;
9496;SDS011;4786;51.270;4.456;2022-07-23T15:37:44;3.15;;;2.40;;
9496;SDS011;4786;51.270;4.456;2022-07-23T15:40:10;3.28;;;2.25;;
9496;SDS011;4786;51.270;4.456;2022-07-23T15:42:37;3.92;;;2.55;;
9496;SDS011;4786;51.270;4.456;2022-07-23T15:45:03;2.53;;;2.33;;
9496;SDS011;4786;51.270;4.456;2022-07-23T15:47:30;3.97;;;2.97;;
9496;SDS011;4786;51.270;4.456;2022-07-23T15:49:56;3.42;;;2.50;;
9496;SDS011;4786;51.270;4.456;2022-07-23T15:52:22;3.22;;;2.58;;
9496;SDS011;4786;51.270;4.456;2022-07-23T15:54:48;2.50;;;2.30;;
9496;SDS011;4786;51.270;4.456;2022-07-23T15:57:14;3.42;;;2.90;;
9496;SDS011;4786;51.270;4.456;2022-07-23T15:59:40;2.92;;;2.70;;
9496;SDS011;4786;51.270;4.456;2022-07-23T16:02:06;3.05;;;2.85;;
9496;SDS011;4786;51.270;4.456;2022-07-23T16:04:32;2.95;;;2.65;;
9496;SDS011;4786;51.270;4.456;2022-07-23T16:06:59;2.85;;;2.60;;
9496;SDS011;4786;51.270;4.456;2022-07-23T16:09:25;4.72;;;2.60;;
9496;SDS011;4786;51.270;4.456;2022-07-23T16:11:50;3.70;;;3.17;;
9496;SDS011;4786;51.270;4.456;2022-07-23T16:14:18;3.88;;;2.60;;
9496;SDS011;4786;51.270;4.456;2022-07-23T16:16:44;2.70;;;2.50;;
9496;SDS011;4786;51.270;4.456;2022-07-23T16:19:09;3.90;;;2.70;;
9496;SDS011;4786;51.270;4.456;2022-07-23T16:21:36;2.70;;;2.50;;
9496;SDS011;4786;51.270;4.456;2022-07-23T16:24:02;2.70;;;2.50;;
9496;SDS011;4786;51.270;4.456;2022-07-23T16:26:28;3.70;;;2.67;;